Aviation Digital Data Service (ADDS)

Output produced by METARs form (1716 UTC 24 June 2019)
found at http://www.aviationweather.gov/metar/data/
 
KGXY 241656Z AUTO 24008KT 10SM CLR 24/07 A2995 RMK AO2 SLP110 T02390067